KDMA/DMA METAR and TAF weather

Enter ICAO airport designator
Station Type Date Time Source
KDMA METAR 2018/01/22 11:58 UTC NOAA

KDMA 221158Z AUTO 12008KT 10SM CLR 00/M08 A3021 RMK AO2 SLP229 T10021082 10012 21012 57009


Station Type Date Time Source
KDMA Decoded METAR 2018/01/22 11:58 UTC NOAA

Davis-Monthan Air Force Base, AZ, United States (KDMA) 32-10N 110-53W
Jan 22, 2018 - 06:58 AM EST / 2018.01.22 1158 UTC
Wind: from the ESE (120 degrees) at 9 MPH (8 KT):0
Visibility: 10 mile(s):0
Sky conditions: clear
Temperature: 31.6 F (-0.2 C)
Windchill: 23 F (-5 C):1
Dew Point: 17.2 F (-8.2 C)
Relative Humidity: 54%
Pressure (altimeter): 30.21 in. Hg (1023 hPa)
Pressure tendency: 0.03 inches (0.9 hPa) lower than three hours ago
ob: KDMA 221158Z AUTO 12008KT 10SM CLR 00/M08 A3021 RMK AO2 SLP229 T10021082 10012 21012 57009
cycle: 12

Station Type Date Time Source
KDMA TAF 2018/01/22 06:12 UTC NOAA

TAF TAF KDMA 220608Z 2206/2312 15006KT 9999 FEW200 QNH3020INS
BECMG 2213/2214 30009KT 9999 SCT200 QNH3012INS
BECMG 2222/2223 11008KT 9999 SKC QNH3014INS TX15/2223Z TNM01/2214Z


Example: see airport list